sensor_id;sensor_type;location;lat;lon;timestamp;P1;durP1;ratioP1;P2;durP2;ratioP2
63276;SDS011;49403;51.046;13.780;2022-07-17T00:00:29;11.82;;;6.70;;
63276;SDS011;49403;51.046;13.780;2022-07-17T00:00:59;15.70;;;6.85;;
63276;SDS011;49403;51.046;13.780;2022-07-17T00:01:30;12.57;;;6.68;;
63276;SDS011;49403;51.046;13.780;2022-07-17T00:02:01;15.57;;;6.97;;
63276;SDS011;49403;51.046;13.780;2022-07-17T00:02:32;13.55;;;6.88;;
63276;SDS011;49403;51.046;13.780;2022-07-17T00:03:03;9.80;;;6.50;;
63276;SDS011;49403;51.046;13.780;2022-07-17T00:03:34;11.20;;;6.78;;
63276;SDS011;49403;51.046;13.780;2022-07-17T00:04:05;13.13;;;6.90;;
63276;SDS011;49403;51.046;13.780;2022-07-17T00:04:36;13.35;;;6.40;;
63276;SDS011;49403;51.046;13.780;2022-07-17T00:05:07;15.98;;;6.60;;
63276;SDS011;49403;51.046;13.780;2022-07-17T00:05:42;11.85;;;6.30;;
63276;SDS011;49403;51.046;13.780;2022-07-17T00:06:15;13.65;;;6.47;;
63276;SDS011;49403;51.046;13.780;2022-07-17T00:06:48;13.48;;;6.63;;
63276;SDS011;49403;51.046;13.780;2022-07-17T00:07:19;11.93;;;6.57;;
63276;SDS011;49403;51.046;13.780;2022-07-17T00:07:50;10.55;;;6.63;;
63276;SDS011;49403;51.046;13.780;2022-07-17T00:08:21;13.77;;;6.60;;
63276;SDS011;49403;51.046;13.780;2022-07-17T00:08:52;12.75;;;6.72;;
63276;SDS011;49403;51.046;13.780;2022-07-17T00:09:23;12.32;;;6.75;;
63276;SDS011;49403;51.046;13.780;2022-07-17T00:09:54;11.65;;;6.78;;
63276;SDS011;49403;51.046;13.780;2022-07-17T00:10:24;11.02;;;7.00;;
63276;SDS011;49403;51.046;13.780;2022-07-17T00:10:55;10.73;;;6.50;;
63276;SDS011;49403;51.046;13.780;2022-07-17T00:11:29;12.73;;;6.75;;
63276;SDS011;49403;51.046;13.780;2022-07-17T00:12:00;14.93;;;6.35;;
63276;SDS011;49403;51.046;13.780;2022-07-17T00:12:31;12.73;;;6.57;;
63276;SDS011;49403;51.046;13.780;2022-07-17T00:13:02;11.75;;;6.38;;
63276;SDS011;49403;51.046;13.780;2022-07-17T00:13:34;13.98;;;6.47;;
63276;SDS011;49403;51.046;13.780;2022-07-17T00:14:05;9.27;;;6.30;;
63276;SDS011;49403;51.046;13.780;2022-07-17T00:14:36;10.05;;;6.07;;
63276;SDS011;49403;51.046;13.780;2022-07-17T00:15:07;12.00;;;6.20;;
63276;SDS011;49403;51.046;13.780;2022-07-17T00:15:38;14.25;;;5.95;;
63276;SDS011;49403;51.046;13.780;2022-07-17T00:16:09;9.20;;;5.97;;
63276;SDS011;49403;51.046;13.780;2022-07-17T00:16:42;11.43;;;5.75;;
63276;SDS011;49403;51.046;13.780;2022-07-17T00:17:12;13.00;;;5.85;;
63276;SDS011;49403;51.046;13.780;2022-07-17T00:17:44;10.77;;;5.93;;
63276;SDS011;49403;51.046;13.780;2022-07-17T00:18:15;9.52;;;5.70;;
63276;SDS011;49403;51.046;13.780;2022-07-17T00:18:46;11.10;;;5.95;;
63276;SDS011;49403;51.046;13.780;2022-07-17T00:19:17;11.93;;;5.88;;
63276;SDS011;49403;51.046;13.780;2022-07-17T00:19:47;9.85;;;5.75;;
63276;SDS011;49403;51.046;13.780;2022-07-17T00:20:18;13.05;;;5.70;;
63276;SDS011;49403;51.046;13.780;2022-07-17T00:20:49;12.20;;;5.75;;
63276;SDS011;49403;51.046;13.780;2022-07-17T00:21:21;9.68;;;5.40;;
63276;SDS011;49403;51.046;13.780;2022-07-17T00:21:51;12.25;;;5.05;;
63276;SDS011;49403;51.046;13.780;2022-07-17T00:22:23;9.45;;;5.28;;
63276;SDS011;49403;51.046;13.780;2022-07-17T00:22:54;12.10;;;5.18;;
63276;SDS011;49403;51.046;13.780;2022-07-17T00:23:25;11.32;;;5.38;;
63276;SDS011;49403;51.046;13.780;2022-07-17T00:23:59;9.65;;;5.00;;
63276;SDS011;49403;51.046;13.780;2022-07-17T00:24:30;10.75;;;5.43;;
63276;SDS011;49403;51.046;13.780;2022-07-17T00:25:02;9.70;;;5.40;;
63276;SDS011;49403;51.046;13.780;2022-07-17T00:25:33;12.20;;;5.78;;
63276;SDS011;49403;51.046;13.780;2022-07-17T00:26:06;11.98;;;5.72;;
63276;SDS011;49403;51.046;13.780;2022-07-17T00:26:38;10.18;;;5.53;;
63276;SDS011;49403;51.046;13.780;2022-07-17T00:27:09;9.40;;;5.30;;
63276;SDS011;49403;51.046;13.780;2022-07-17T00:27:40;11.27;;;5.28;;
63276;SDS011;49403;51.046;13.780;2022-07-17T00:28:10;10.77;;;5.18;;
63276;SDS011;49403;51.046;13.780;2022-07-17T00:28:41;9.55;;;5.30;;
63276;SDS011;49403;51.046;13.780;2022-07-17T00:29:12;10.82;;;5.05;;
63276;SDS011;49403;51.046;13.780;2022-07-17T00:29:43;9.73;;;5.03;;
63276;SDS011;49403;51.046;13.780;2022-07-17T00:30:14;9.85;;;5.40;;
63276;SDS011;49403;51.046;13.780;2022-07-17T00:30:46;8.05;;;5.07;;
63276;SDS011;49403;51.046;13.780;2022-07-17T00:31:17;8.48;;;5.00;;
63276;SDS011;49403;51.046;13.780;2022-07-17T00:31:48;10.50;;;5.20;;
63276;SDS011;49403;51.046;13.780;2022-07-17T00:32:21;9.50;;;4.80;;
63276;SDS011;49403;51.046;13.780;2022-07-17T00:32:53;7.53;;;4.78;;
63276;SDS011;49403;51.046;13.780;2022-07-17T00:33:27;7.20;;;4.78;;
63276;SDS011;49403;51.046;13.780;2022-07-17T00:34:01;12.95;;;5.18;;
63276;SDS011;49403;51.046;13.780;2022-07-17T00:34:32;7.60;;;4.90;;
63276;SDS011;49403;51.046;13.780;2022-07-17T00:35:03;10.18;;;5.00;;
63276;SDS011;49403;51.046;13.780;2022-07-17T00:35:34;12.10;;;4.80;;
63276;SDS011;49403;51.046;13.780;2022-07-17T00:36:07;6.82;;;4.35;;
63276;SDS011;49403;51.046;13.780;2022-07-17T00:36:38;13.07;;;4.68;;
63276;SDS011;49403;51.046;13.780;2022-07-17T00:37:09;8.50;;;4.78;;
63276;SDS011;49403;51.046;13.780;2022-07-17T00:37:40;9.10;;;4.57;;
63276;SDS011;49403;51.046;13.780;2022-07-17T00:38:12;7.53;;;4.35;;
63276;SDS011;49403;51.046;13.780;2022-07-17T00:38:46;10.10;;;4.95;;
63276;SDS011;49403;51.046;13.780;2022-07-17T00:39:17;7.40;;;4.60;;
63276;SDS011;49403;51.046;13.780;2022-07-17T00:39:48;12.27;;;4.80;;
63276;SDS011;49403;51.046;13.780;2022-07-17T00:40:21;7.72;;;4.93;;
63276;SDS011;49403;51.046;13.780;2022-07-17T00:40:53;9.55;;;4.75;;
63276;SDS011;49403;51.046;13.780;2022-07-17T00:41:28;6.65;;;4.53;;
63276;SDS011;49403;51.046;13.780;2022-07-17T00:42:00;12.05;;;4.55;;
63276;SDS011;49403;51.046;13.780;2022-07-17T00:42:31;8.77;;;4.60;;
63276;SDS011;49403;51.046;13.780;2022-07-17T00:43:02;8.60;;;4.80;;
63276;SDS011;49403;51.046;13.780;2022-07-17T00:43:35;13.82;;;4.72;;
63276;SDS011;49403;51.046;13.780;2022-07-17T00:44:08;8.07;;;4.30;;
63276;SDS011;49403;51.046;13.780;2022-07-17T00:44:40;9.50;;;4.57;;
63276;SDS011;49403;51.046;13.780;2022-07-17T00:45:12;7.15;;;4.40;;
63276;SDS011;49403;51.046;13.780;2022-07-17T00:45:43;9.57;;;5.00;;
63276;SDS011;49403;51.046;13.780;2022-07-17T00:46:14;11.75;;;4.80;;
63276;SDS011;49403;51.046;13.780;2022-07-17T00:46:45;6.80;;;4.40;;
63276;SDS011;49403;51.046;13.780;2022-07-17T00:47:17;12.98;;;4.60;;
63276;SDS011;49403;51.046;13.780;2022-07-17T00:48:22;7.40;;;4.50;;
63276;SDS011;49403;51.046;13.780;2022-07-17T00:48:53;8.93;;;4.57;;
63276;SDS011;49403;51.046;13.780;2022-07-17T00:49:24;8.00;;;4.65;;
63276;SDS011;49403;51.046;13.780;2022-07-17T00:49:55;9.15;;;4.60;;
63276;SDS011;49403;51.046;13.780;2022-07-17T00:50:30;9.82;;;4.38;;
63276;SDS011;49403;51.046;13.780;2022-07-17T00:51:05;11.52;;;4.70;;
63276;SDS011;49403;51.046;13.780;2022-07-17T00:51:37;9.85;;;4.50;;
63276;SDS011;49403;51.046;13.780;2022-07-17T00:52:11;8.52;;;4.45;;
63276;SDS011;49403;51.046;13.780;2022-07-17T00:52:43;8.98;;;4.25;;
63276;SDS011;49403;51.046;13.780;2022-07-17T00:53:14;7.88;;;4.60;;
63276;SDS011;49403;51.046;13.780;2022-07-17T00:53:45;7.70;;;4.32;;
63276;SDS011;49403;51.046;13.780;2022-07-17T00:54:17;8.52;;;4.65;;
63276;SDS011;49403;51.046;13.780;2022-07-17T00:54:48;8.85;;;4.38;;
63276;SDS011;49403;51.046;13.780;2022-07-17T00:55:22;8.63;;;4.40;;
63276;SDS011;49403;51.046;13.780;2022-07-17T00:55:54;6.75;;;4.25;;
63276;SDS011;49403;51.046;13.780;2022-07-17T00:56:27;8.95;;;4.57;;
63276;SDS011;49403;51.046;13.780;2022-07-17T00:56:59;7.22;;;4.25;;
63276;SDS011;49403;51.046;13.780;2022-07-17T00:57:32;11.50;;;4.10;;
63276;SDS011;49403;51.046;13.780;2022-07-17T00:58:05;10.65;;;4.20;;
63276;SDS011;49403;51.046;13.780;2022-07-17T00:58:37;7.55;;;4.80;;
63276;SDS011;49403;51.046;13.780;2022-07-17T00:59:09;7.65;;;4.28;;
63276;SDS011;49403;51.046;13.780;2022-07-17T00:59:44;8.10;;;4.50;;
63276;SDS011;49403;51.046;13.780;2022-07-17T01:00:16;9.55;;;4.40;;
63276;SDS011;49403;51.046;13.780;2022-07-17T01:00:48;10.82;;;4.10;;
63276;SDS011;49403;51.046;13.780;2022-07-17T01:01:20;9.05;;;4.80;;
63276;SDS011;49403;51.046;13.780;2022-07-17T01:01:51;7.20;;;4.28;;
63276;SDS011;49403;51.046;13.780;2022-07-17T01:02:25;7.93;;;4.20;;
63276;SDS011;49403;51.046;13.780;2022-07-17T01:02:56;7.60;;;4.45;;
63276;SDS011;49403;51.046;13.780;2022-07-17T01:03:27;7.10;;;4.15;;
63276;SDS011;49403;51.046;13.780;2022-07-17T01:03:58;8.73;;;4.60;;
63276;SDS011;49403;51.046;13.780;2022-07-17T01:04:29;9.77;;;4.50;;
63276;SDS011;49403;51.046;13.780;2022-07-17T01:05:01;7.82;;;4.38;;
63276;SDS011;49403;51.046;13.780;2022-07-17T01:05:32;7.10;;;4.45;;
63276;SDS011;49403;51.046;13.780;2022-07-17T01:06:03;7.97;;;4.15;;
63276;SDS011;49403;51.046;13.780;2022-07-17T01:06:34;9.30;;;4.45;;
63276;SDS011;49403;51.046;13.780;2022-07-17T01:07:06;6.95;;;4.50;;
63276;SDS011;49403;51.046;13.780;2022-07-17T01:07:37;10.70;;;4.60;;
63276;SDS011;49403;51.046;13.780;2022-07-17T01:08:08;7.38;;;4.32;;
63276;SDS011;49403;51.046;13.780;2022-07-17T01:08:40;8.15;;;4.00;;
63276;SDS011;49403;51.046;13.780;2022-07-17T01:09:11;7.45;;;4.78;;
63276;SDS011;49403;51.046;13.780;2022-07-17T01:09:42;8.45;;;4.10;;
63276;SDS011;49403;51.046;13.780;2022-07-17T01:10:13;8.77;;;3.90;;
63276;SDS011;49403;51.046;13.780;2022-07-17T01:10:46;7.40;;;3.83;;
63276;SDS011;49403;51.046;13.780;2022-07-17T01:11:17;9.23;;;4.25;;
63276;SDS011;49403;51.046;13.780;2022-07-17T01:11:51;7.68;;;4.10;;
63276;SDS011;49403;51.046;13.780;2022-07-17T01:12:22;10.75;;;4.03;;
63276;SDS011;49403;51.046;13.780;2022-07-17T01:12:54;8.10;;;4.10;;
63276;SDS011;49403;51.046;13.780;2022-07-17T01:13:26;5.97;;;4.10;;
63276;SDS011;49403;51.046;13.780;2022-07-17T01:13:57;7.80;;;3.80;;
63276;SDS011;49403;51.046;13.780;2022-07-17T01:14:28;5.78;;;3.85;;
63276;SDS011;49403;51.046;13.780;2022-07-17T01:14:59;7.38;;;3.72;;
63276;SDS011;49403;51.046;13.780;2022-07-17T01:15:31;7.63;;;3.90;;
63276;SDS011;49403;51.046;13.780;2022-07-17T01:16:05;6.65;;;3.63;;
63276;SDS011;49403;51.046;13.780;2022-07-17T01:16:37;8.07;;;3.67;;
63276;SDS011;49403;51.046;13.780;2022-07-17T01:17:11;6.43;;;3.65;;
63276;SDS011;49403;51.046;13.780;2022-07-17T01:17:43;8.90;;;3.97;;
63276;SDS011;49403;51.046;13.780;2022-07-17T01:18:14;6.72;;;3.90;;
63276;SDS011;49403;51.046;13.780;2022-07-17T01:18:45;7.05;;;3.90;;
63276;SDS011;49403;51.046;13.780;2022-07-17T01:19:16;8.95;;;4.10;;
63276;SDS011;49403;51.046;13.780;2022-07-17T01:19:47;8.48;;;3.97;;
63276;SDS011;49403;51.046;13.780;2022-07-17T01:20:18;9.30;;;4.07;;
63276;SDS011;49403;51.046;13.780;2022-07-17T01:20:49;6.95;;;3.60;;
63276;SDS011;49403;51.046;13.780;2022-07-17T01:21:21;6.97;;;3.70;;
63276;SDS011;49403;51.046;13.780;2022-07-17T01:21:52;9.48;;;4.03;;
63276;SDS011;49403;51.046;13.780;2022-07-17T01:22:23;7.00;;;3.85;;
63276;SDS011;49403;51.046;13.780;2022-07-17T01:22:55;6.35;;;3.65;;
63276;SDS011;49403;51.046;13.780;2022-07-17T01:23:27;16.10;;;3.83;;
63276;SDS011;49403;51.046;13.780;2022-07-17T01:23:58;7.97;;;3.90;;
63276;SDS011;49403;51.046;13.780;2022-07-17T01:24:29;7.50;;;3.95;;
63276;SDS011;49403;51.046;13.780;2022-07-17T01:25:00;6.93;;;3.78;;
63276;SDS011;49403;51.046;13.780;2022-07-17T01:25:31;7.43;;;4.05;;
63276;SDS011;49403;51.046;13.780;2022-07-17T01:26:02;9.27;;;4.55;;
63276;SDS011;49403;51.046;13.780;2022-07-17T01:26:33;6.70;;;3.80;;
63276;SDS011;49403;51.046;13.780;2022-07-17T01:27:04;6.75;;;4.00;;
63276;SDS011;49403;51.046;13.780;2022-07-17T01:27:35;9.02;;;3.95;;
63276;SDS011;49403;51.046;13.780;2022-07-17T01:28:07;8.05;;;4.10;;
63276;SDS011;49403;51.046;13.780;2022-07-17T01:28:38;6.30;;;3.70;;
63276;SDS011;49403;51.046;13.780;2022-07-17T01:29:09;9.55;;;3.83;;
63276;SDS011;49403;51.046;13.780;2022-07-17T01:29:41;6.53;;;3.67;;
63276;SDS011;49403;51.046;13.780;2022-07-17T01:30:12;6.70;;;3.80;;
63276;SDS011;49403;51.046;13.780;2022-07-17T01:30:47;9.48;;;3.88;;
63276;SDS011;49403;51.046;13.780;2022-07-17T01:31:20;6.95;;;3.70;;
63276;SDS011;49403;51.046;13.780;2022-07-17T01:31:50;5.97;;;3.60;;
63276;SDS011;49403;51.046;13.780;2022-07-17T01:32:33;7.10;;;4.20;;
63276;SDS011;49403;51.046;13.780;2022-07-17T01:33:05;7.35;;;3.60;;
63276;SDS011;49403;51.046;13.780;2022-07-17T01:33:35;6.18;;;3.50;;
63276;SDS011;49403;51.046;13.780;2022-07-17T01:34:07;5.72;;;3.53;;
63276;SDS011;49403;51.046;13.780;2022-07-17T01:34:39;6.57;;;3.72;;
63276;SDS011;49403;51.046;13.780;2022-07-17T01:35:11;6.53;;;3.45;;
63276;SDS011;49403;51.046;13.780;2022-07-17T01:35:43;7.93;;;3.88;;
63276;SDS011;49403;51.046;13.780;2022-07-17T01:36:14;6.95;;;3.60;;
63276;SDS011;49403;51.046;13.780;2022-07-17T01:36:45;7.30;;;3.70;;
63276;SDS011;49403;51.046;13.780;2022-07-17T01:37:16;6.90;;;3.85;;
63276;SDS011;49403;51.046;13.780;2022-07-17T01:37:48;6.35;;;3.63;;
63276;SDS011;49403;51.046;13.780;2022-07-17T01:38:19;7.78;;;3.70;;
63276;SDS011;49403;51.046;13.780;2022-07-17T01:38:50;9.77;;;4.03;;
63276;SDS011;49403;51.046;13.780;2022-07-17T01:39:24;6.20;;;3.65;;
63276;SDS011;49403;51.046;13.780;2022-07-17T01:40:15;6.60;;;3.70;;
63276;SDS011;49403;51.046;13.780;2022-07-17T01:40:46;7.05;;;3.85;;
63276;SDS011;49403;51.046;13.780;2022-07-17T01:41:17;7.05;;;3.65;;
63276;SDS011;49403;51.046;13.780;2022-07-17T01:41:48;7.55;;;3.45;;
63276;SDS011;49403;51.046;13.780;2022-07-17T01:42:20;6.82;;;3.45;;
63276;SDS011;49403;51.046;13.780;2022-07-17T01:42:51;5.25;;;3.60;;
63276;SDS011;49403;51.046;13.780;2022-07-17T01:43:22;5.32;;;3.42;;
63276;SDS011;49403;51.046;13.780;2022-07-17T01:43:53;6.93;;;3.40;;
63276;SDS011;49403;51.046;13.780;2022-07-17T01:44:25;8.55;;;3.63;;
63276;SDS011;49403;51.046;13.780;2022-07-17T01:44:59;7.05;;;3.70;;
63276;SDS011;49403;51.046;13.780;2022-07-17T01:45:30;7.07;;;3.80;;
63276;SDS011;49403;51.046;13.780;2022-07-17T01:46:01;6.18;;;3.40;;
63276;SDS011;49403;51.046;13.780;2022-07-17T01:46:32;8.13;;;3.72;;
63276;SDS011;49403;51.046;13.780;2022-07-17T01:47:06;7.07;;;3.50;;
63276;SDS011;49403;51.046;13.780;2022-07-17T01:47:37;9.82;;;3.75;;
63276;SDS011;49403;51.046;13.780;2022-07-17T01:48:08;8.65;;;3.70;;
63276;SDS011;49403;51.046;13.780;2022-07-17T01:48:39;7.35;;;3.45;;
63276;SDS011;49403;51.046;13.780;2022-07-17T01:49:12;4.45;;;3.30;;
63276;SDS011;49403;51.046;13.780;2022-07-17T01:49:47;7.10;;;3.75;;
63276;SDS011;49403;51.046;13.780;2022-07-17T01:50:20;6.07;;;3.22;;
63276;SDS011;49403;51.046;13.780;2022-07-17T01:50:51;8.70;;;3.58;;
63276;SDS011;49403;51.046;13.780;2022-07-17T01:51:22;7.07;;;3.33;;
63276;SDS011;49403;51.046;13.780;2022-07-17T01:51:52;9.98;;;3.60;;
63276;SDS011;49403;51.046;13.780;2022-07-17T01:52:24;7.38;;;3.72;;
63276;SDS011;49403;51.046;13.780;2022-07-17T01:52:55;8.23;;;3.67;;
63276;SDS011;49403;51.046;13.780;2022-07-17T01:53:26;7.95;;;3.60;;
63276;SDS011;49403;51.046;13.780;2022-07-17T01:53:59;6.00;;;3.40;;
63276;SDS011;49403;51.046;13.780;2022-07-17T01:54:30;8.70;;;3.70;;
63276;SDS011;49403;51.046;13.780;2022-07-17T01:55:01;8.57;;;3.70;;
63276;SDS011;49403;51.046;13.780;2022-07-17T01:55:35;5.22;;;3.50;;
63276;SDS011;49403;51.046;13.780;2022-07-17T01:56:06;5.95;;;3.17;;
63276;SDS011;49403;51.046;13.780;2022-07-17T01:56:37;6.10;;;3.40;;
63276;SDS011;49403;51.046;13.780;2022-07-17T01:57:08;5.90;;;3.55;;
63276;SDS011;49403;51.046;13.780;2022-07-17T01:57:40;6.70;;;3.42;;
63276;SDS011;49403;51.046;13.780;2022-07-17T01:58:12;6.18;;;3.65;;
63276;SDS011;49403;51.046;13.780;2022-07-17T01:58:46;6.93;;;3.58;;
63276;SDS011;49403;51.046;13.780;2022-07-17T01:59:17;8.15;;;3.45;;
63276;SDS011;49403;51.046;13.780;2022-07-17T01:59:51;9.15;;;3.80;;
63276;SDS011;49403;51.046;13.780;2022-07-17T02:00:22;5.05;;;3.50;;
63276;SDS011;49403;51.046;13.780;2022-07-17T02:00:55;6.25;;;3.58;;
63276;SDS011;49403;51.046;13.780;2022-07-17T02:01:26;7.75;;;3.58;;
63276;SDS011;49403;51.046;13.780;2022-07-17T02:01:57;10.10;;;3.60;;
63276;SDS011;49403;51.046;13.780;2022-07-17T02:02:28;6.10;;;3.55;;
63276;SDS011;49403;51.046;13.780;2022-07-17T02:02:59;7.72;;;3.38;;
63276;SDS011;49403;51.046;13.780;2022-07-17T02:03:30;6.05;;;3.50;;
63276;SDS011;49403;51.046;13.780;2022-07-17T02:04:01;7.32;;;3.47;;
63276;SDS011;49403;51.046;13.780;2022-07-17T02:04:32;6.30;;;3.40;;
63276;SDS011;49403;51.046;13.780;2022-07-17T02:05:04;7.95;;;3.63;;
63276;SDS011;49403;51.046;13.780;2022-07-17T02:05:35;6.43;;;3.50;;
63276;SDS011;49403;51.046;13.780;2022-07-17T02:06:08;8.07;;;3.53;;
63276;SDS011;49403;51.046;13.780;2022-07-17T02:06:39;6.78;;;3.70;;
63276;SDS011;49403;51.046;13.780;2022-07-17T02:07:13;8.85;;;3.75;;
63276;SDS011;49403;51.046;13.780;2022-07-17T02:07:44;6.50;;;3.50;;
63276;SDS011;49403;51.046;13.780;2022-07-17T02:08:15;5.95;;;3.42;;
63276;SDS011;49403;51.046;13.780;2022-07-17T02:08:46;6.95;;;3.47;;
63276;SDS011;49403;51.046;13.780;2022-07-17T02:09:21;10.55;;;3.75;;
63276;SDS011;49403;51.046;13.780;2022-07-17T02:09:52;7.40;;;3.67;;
63276;SDS011;49403;51.046;13.780;2022-07-17T02:10:26;9.65;;;3.67;;
63276;SDS011;49403;51.046;13.780;2022-07-17T02:10:57;7.28;;;3.53;;
63276;SDS011;49403;51.046;13.780;2022-07-17T02:11:28;6.25;;;3.45;;
63276;SDS011;49403;51.046;13.780;2022-07-17T02:12:02;5.40;;;3.50;;
63276;SDS011;49403;51.046;13.780;2022-07-17T02:12:34;8.23;;;3.63;;
63276;SDS011;49403;51.046;13.780;2022-07-17T02:13:08;7.85;;;3.50;;
63276;SDS011;49403;51.046;13.780;2022-07-17T02:13:41;5.97;;;3.50;;
63276;SDS011;49403;51.046;13.780;2022-07-17T02:14:16;6.82;;;3.60;;
63276;SDS011;49403;51.046;13.780;2022-07-17T02:14:50;8.20;;;3.70;;
63276;SDS011;49403;51.046;13.780;2022-07-17T02:15:21;7.28;;;3.50;;
63276;SDS011;49403;51.046;13.780;2022-07-17T02:15:52;6.85;;;3.60;;
63276;SDS011;49403;51.046;13.780;2022-07-17T02:16:23;7.82;;;3.70;;
63276;SDS011;49403;51.046;13.780;2022-07-17T02:16:54;9.55;;;3.85;;
63276;SDS011;49403;51.046;13.780;2022-07-17T02:17:25;8.00;;;3.78;;
63276;SDS011;49403;51.046;13.780;2022-07-17T02:17:56;7.45;;;4.00;;
63276;SDS011;49403;51.046;13.780;2022-07-17T02:18:30;5.85;;;3.50;;
63276;SDS011;49403;51.046;13.780;2022-07-17T02:19:04;6.80;;;3.67;;
63276;SDS011;49403;51.046;13.780;2022-07-17T02:19:35;9.20;;;4.10;;
63276;SDS011;49403;51.046;13.780;2022-07-17T02:20:07;8.20;;;3.50;;
63276;SDS011;49403;51.046;13.780;2022-07-17T02:20:39;5.05;;;3.50;;
63276;SDS011;49403;51.046;13.780;2022-07-17T02:21:11;6.32;;;3.40;;
63276;SDS011;49403;51.046;13.780;2022-07-17T02:21:42;10.25;;;3.90;;
63276;SDS011;49403;51.046;13.780;2022-07-17T02:22:13;7.35;;;3.50;;
63276;SDS011;49403;51.046;13.780;2022-07-17T02:22:45;8.93;;;3.70;;
63276;SDS011;49403;51.046;13.780;2022-07-17T02:23:16;7.28;;;3.38;;
63276;SDS011;49403;51.046;13.780;2022-07-17T02:23:50;6.50;;;3.70;;
63276;SDS011;49403;51.046;13.780;2022-07-17T02:24:23;10.00;;;3.72;;
63276;SDS011;49403;51.046;13.780;2022-07-17T02:24:54;6.50;;;3.50;;
63276;SDS011;49403;51.046;13.780;2022-07-17T02:25:25;5.10;;;3.53;;
63276;SDS011;49403;51.046;13.780;2022-07-17T02:25:56;5.50;;;3.42;;
63276;SDS011;49403;51.046;13.780;2022-07-17T02:26:27;6.25;;;3.40;;
63276;SDS011;49403;51.046;13.780;2022-07-17T02:26:58;7.07;;;3.33;;
63276;SDS011;49403;51.046;13.780;2022-07-17T02:27:30;5.90;;;3.67;;
63276;SDS011;49403;51.046;13.780;2022-07-17T02:28:02;9.15;;;3.45;;
63276;SDS011;49403;51.046;13.780;2022-07-17T02:28:33;5.93;;;3.45;;
63276;SDS011;49403;51.046;13.780;2022-07-17T02:29:04;6.85;;;3.47;;
63276;SDS011;49403;51.046;13.780;2022-07-17T02:29:37;7.75;;;3.50;;
63276;SDS011;49403;51.046;13.780;2022-07-17T02:30:12;6.85;;;3.25;;
63276;SDS011;49403;51.046;13.780;2022-07-17T02:30:44;5.47;;;3.58;;
63276;SDS011;49403;51.046;13.780;2022-07-17T02:31:16;5.30;;;3.60;;
63276;SDS011;49403;51.046;13.780;2022-07-17T02:31:47;12.93;;;3.97;;
63276;SDS011;49403;51.046;13.780;2022-07-17T02:32:18;7.53;;;3.40;;
63276;SDS011;49403;51.046;13.780;2022-07-17T02:32:49;7.88;;;3.80;;
63276;SDS011;49403;51.046;13.780;2022-07-17T02:33:20;6.32;;;3.53;;
63276;SDS011;49403;51.046;13.780;2022-07-17T02:33:52;7.68;;;3.42;;
63276;SDS011;49403;51.046;13.780;2022-07-17T02:34:23;8.85;;;3.80;;
63276;SDS011;49403;51.046;13.780;2022-07-17T02:34:57;6.90;;;3.70;;
63276;SDS011;49403;51.046;13.780;2022-07-17T02:35:31;5.82;;;3.40;;
63276;SDS011;49403;51.046;13.780;2022-07-17T02:36:05;9.50;;;3.50;;
63276;SDS011;49403;51.046;13.780;2022-07-17T02:36:39;7.35;;;3.50;;
63276;SDS011;49403;51.046;13.780;2022-07-17T02:37:11;8.23;;;3.33;;
63276;SDS011;49403;51.046;13.780;2022-07-17T02:37:42;4.88;;;3.38;;
63276;SDS011;49403;51.046;13.780;2022-07-17T02:38:15;5.95;;;3.15;;
63276;SDS011;49403;51.046;13.780;2022-07-17T02:38:47;7.30;;;3.50;;
63276;SDS011;49403;51.046;13.780;2022-07-17T02:39:21;6.22;;;3.20;;
63276;SDS011;49403;51.046;13.780;2022-07-17T02:39:52;4.93;;;3.38;;
63276;SDS011;49403;51.046;13.780;2022-07-17T02:40:23;7.15;;;3.35;;
63276;SDS011;49403;51.046;13.780;2022-07-17T02:40:57;4.80;;;3.30;;
63276;SDS011;49403;51.046;13.780;2022-07-17T02:41:31;6.43;;;3.30;;
63276;SDS011;49403;51.046;13.780;2022-07-17T02:42:02;6.57;;;3.40;;
63276;SDS011;49403;51.046;13.780;2022-07-17T02:42:33;6.75;;;3.50;;
63276;SDS011;49403;51.046;13.780;2022-07-17T02:43:07;5.75;;;3.50;;
63276;SDS011;49403;51.046;13.780;2022-07-17T02:43:38;6.97;;;3.65;;
63276;SDS011;49403;51.046;13.780;2022-07-17T02:44:09;7.97;;;3.78;;
63276;SDS011;49403;51.046;13.780;2022-07-17T02:44:40;10.95;;;3.60;;
63276;SDS011;49403;51.046;13.780;2022-07-17T02:45:14;5.35;;;3.40;;
63276;SDS011;49403;51.046;13.780;2022-07-17T02:45:45;10.73;;;3.70;;
63276;SDS011;49403;51.046;13.780;2022-07-17T02:46:16;9.07;;;3.60;;
63276;SDS011;49403;51.046;13.780;2022-07-17T02:46:47;8.60;;;3.80;;
63276;SDS011;49403;51.046;13.780;2022-07-17T02:47:26;9.77;;;3.72;;
63276;SDS011;49403;51.046;13.780;2022-07-17T02:48:01;8.80;;;3.83;;
63276;SDS011;49403;51.046;13.780;2022-07-17T02:48:33;6.00;;;3.83;;
63276;SDS011;49403;51.046;13.780;2022-07-17T02:49:07;8.07;;;3.80;;
63276;SDS011;49403;51.046;13.780;2022-07-17T02:49:41;7.50;;;3.67;;
63276;SDS011;49403;51.046;13.780;2022-07-17T02:50:14;7.38;;;3.80;;
63276;SDS011;49403;51.046;13.780;2022-07-17T02:50:48;5.65;;;3.78;;
63276;SDS011;49403;51.046;13.780;2022-07-17T02:51:22;7.47;;;4.10;;
63276;SDS011;49403;51.046;13.780;2022-07-17T02:51:54;6.15;;;3.90;;
63276;SDS011;49403;51.046;13.780;2022-07-17T02:52:25;7.10;;;4.07;;
63276;SDS011;49403;51.046;13.780;2022-07-17T02:52:58;7.38;;;4.18;;
63276;SDS011;49403;51.046;13.780;2022-07-17T02:53:32;8.50;;;3.97;;
63276;SDS011;49403;51.046;13.780;2022-07-17T02:54:03;7.95;;;4.20;;
63276;SDS011;49403;51.046;13.780;2022-07-17T02:54:34;10.30;;;4.20;;
63276;SDS011;49403;51.046;13.780;2022-07-17T02:55:06;7.88;;;4.50;;
63276;SDS011;49403;51.046;13.780;2022-07-17T02:55:38;5.95;;;4.20;;
63276;SDS011;49403;51.046;13.780;2022-07-17T02:56:12;6.07;;;4.28;;
63276;SDS011;49403;51.046;13.780;2022-07-17T02:56:43;10.35;;;4.53;;
63276;SDS011;49403;51.046;13.780;2022-07-17T02:57:17;10.80;;;4.50;;
63276;SDS011;49403;51.046;13.780;2022-07-17T02:57:48;6.78;;;4.70;;
63276;SDS011;49403;51.046;13.780;2022-07-17T02:58:19;10.38;;;4.75;;
63276;SDS011;49403;51.046;13.780;2022-07-17T02:58:53;6.78;;;4.68;;
63276;SDS011;49403;51.046;13.780;2022-07-17T02:59:27;9.05;;;5.03;;
63276;SDS011;49403;51.046;13.780;2022-07-17T03:00:03;9.43;;;4.90;;
63276;SDS011;49403;51.046;13.780;2022-07-17T03:00:36;10.55;;;4.85;;
63276;SDS011;49403;51.046;13.780;2022-07-17T03:01:10;9.30;;;4.70;;
63276;SDS011;49403;51.046;13.780;2022-07-17T03:01:44;9.65;;;4.70;;
63276;SDS011;49403;51.046;13.780;2022-07-17T03:02:18;8.23;;;5.05;;
63276;SDS011;49403;51.046;13.780;2022-07-17T03:02:51;9.80;;;4.80;;
63276;SDS011;49403;51.046;13.780;2022-07-17T03:03:26;11.93;;;4.78;;
63276;SDS011;49403;51.046;13.780;2022-07-17T03:03:57;8.48;;;5.00;;
63276;SDS011;49403;51.046;13.780;2022-07-17T03:04:31;7.70;;;4.82;;
63276;SDS011;49403;51.046;13.780;2022-07-17T03:05:05;13.85;;;4.47;;
63276;SDS011;49403;51.046;13.780;2022-07-17T03:05:37;9.05;;;4.85;;
63276;SDS011;49403;51.046;13.780;2022-07-17T03:06:11;8.02;;;4.80;;
63276;SDS011;49403;51.046;13.780;2022-07-17T03:06:42;11.60;;;4.70;;
63276;SDS011;49403;51.046;13.780;2022-07-17T03:07:16;6.97;;;4.40;;
63276;SDS011;49403;51.046;13.780;2022-07-17T03:07:49;8.65;;;4.93;;
63276;SDS011;49403;51.046;13.780;2022-07-17T03:08:23;9.88;;;5.03;;
63276;SDS011;49403;51.046;13.780;2022-07-17T03:08:57;9.80;;;5.03;;
63276;SDS011;49403;51.046;13.780;2022-07-17T03:09:31;15.55;;;4.80;;
63276;SDS011;49403;51.046;13.780;2022-07-17T03:10:08;8.07;;;4.80;;